sensor_id;sensor_type;location;lat;lon;timestamp;pressure;altitude;pressure_sealevel;temperature
76009;BMP280;64700;52.130;21.270;2024-02-23T00:01:02;98615.34;;;20.40
76009;BMP280;64700;52.130;21.270;2024-02-23T00:03:27;98612.44;;;20.38
76009;BMP280;64700;52.130;21.270;2024-02-23T00:05:52;98601.56;;;20.38
76009;BMP280;64700;52.130;21.270;2024-02-23T00:08:17;98605.03;;;20.39
76009;BMP280;64700;52.130;21.270;2024-02-23T00:10:44;98611.94;;;20.40
76009;BMP280;64700;52.130;21.270;2024-02-23T00:13:09;98614.41;;;20.38
76009;BMP280;64700;52.130;21.270;2024-02-23T00:15:34;98606.25;;;20.38
76009;BMP280;64700;52.130;21.270;2024-02-23T00:17:59;98609.72;;;20.38
76009;BMP280;64700;52.130;21.270;2024-02-23T00:20:24;98604.78;;;20.37
76009;BMP280;64700;52.130;21.270;2024-02-23T00:22:50;98600.84;;;20.38
76009;BMP280;64700;52.130;21.270;2024-02-23T00:25:15;98599.13;;;20.35
76009;BMP280;64700;52.130;21.270;2024-02-23T00:27:40;98604.28;;;20.38
76009;BMP280;64700;52.130;21.270;2024-02-23T00:30:07;98598.13;;;20.38
76009;BMP280;64700;52.130;21.270;2024-02-23T00:32:32;98594.16;;;20.39
76009;BMP280;64700;52.130;21.270;2024-02-23T00:34:57;98597.63;;;20.39
76009;BMP280;64700;52.130;21.270;2024-02-23T00:37:22;98587.25;;;20.38
76009;BMP280;64700;52.130;21.270;2024-02-23T00:39:48;98593.19;;;20.36
76009;BMP280;64700;52.130;21.270;2024-02-23T00:42:13;98587.75;;;20.36
76009;BMP280;64700;52.130;21.270;2024-02-23T00:44:38;98581.63;;;20.36
76009;BMP280;64700;52.130;21.270;2024-02-23T00:47:03;98587.75;;;20.36
76009;BMP280;64700;52.130;21.270;2024-02-23T00:49:29;98591.22;;;20.37
76009;BMP280;64700;52.130;21.270;2024-02-23T00:51:54;98588.50;;;20.37
76009;BMP280;64700;52.130;21.270;2024-02-23T00:54:20;98580.34;;;20.37
76009;BMP280;64700;52.130;21.270;2024-02-23T00:56:45;98580.34;;;20.37
76009;BMP280;64700;52.130;21.270;2024-02-23T00:59:10;98578.38;;;20.37
76009;BMP280;64700;52.130;21.270;2024-02-23T01:01:36;98581.38;;;20.34
76009;BMP280;64700;52.130;21.270;2024-02-23T01:04:01;98577.16;;;20.33
76009;BMP280;64700;52.130;21.270;2024-02-23T01:06:26;98577.91;;;20.33
76009;BMP280;64700;52.130;21.270;2024-02-23T01:08:53;98571.00;;;20.32
76009;BMP280;64700;52.130;21.270;2024-02-23T01:11:18;98574.44;;;20.33
76009;BMP280;64700;52.130;21.270;2024-02-23T01:13:44;98564.31;;;20.33
76009;BMP280;64700;52.130;21.270;2024-02-23T01:16:09;98563.59;;;20.33
76009;BMP280;64700;52.130;21.270;2024-02-23T01:18:34;98556.19;;;20.33
76009;BMP280;64700;52.130;21.270;2024-02-23T01:20:59;98555.44;;;20.33
76009;BMP280;64700;52.130;21.270;2024-02-23T01:23:25;98558.44;;;20.35
76009;BMP280;64700;52.130;21.270;2024-02-23T01:25:50;98560.41;;;20.34
76009;BMP280;64700;52.130;21.270;2024-02-23T01:28:15;98553.97;;;20.32
76009;BMP280;64700;52.130;21.270;2024-02-23T01:30:40;98546.56;;;20.32
76009;BMP280;64700;52.130;21.270;2024-02-23T01:33:05;98546.34;;;20.30
76009;BMP280;64700;52.130;21.270;2024-02-23T01:35:31;98540.94;;;20.30
76009;BMP280;64700;52.130;21.270;2024-02-23T01:37:56;98547.09;;;20.31
76009;BMP280;64700;52.130;21.270;2024-02-23T01:40:21;98545.81;;;20.32
76009;BMP280;64700;52.130;21.270;2024-02-23T01:42:46;98546.34;;;20.30
76009;BMP280;64700;52.130;21.270;2024-02-23T01:45:11;98534.03;;;20.29
76009;BMP280;64700;52.130;21.270;2024-02-23T01:47:37;98534.78;;;20.30
76009;BMP280;64700;52.130;21.270;2024-02-23T01:50:03;98543.41;;;20.28
76009;BMP280;64700;52.130;21.270;2024-02-23T01:52:28;98544.16;;;20.29
76009;BMP280;64700;52.130;21.270;2024-02-23T01:54:55;98537.25;;;20.28
76009;BMP280;64700;52.130;21.270;2024-02-23T01:57:21;98537.47;;;20.30
76009;BMP280;64700;52.130;21.270;2024-02-23T01:59:47;98534.78;;;20.30
76009;BMP280;64700;52.130;21.270;2024-02-23T02:02:13;98536.75;;;20.29
76009;BMP280;64700;52.130;21.270;2024-02-23T02:04:38;98546.13;;;20.28
76009;BMP280;64700;52.130;21.270;2024-02-23T02:07:03;98539.97;;;20.28
76009;BMP280;64700;52.130;21.270;2024-02-23T02:09:29;98537.25;;;20.28
76009;BMP280;64700;52.130;21.270;2024-02-23T02:11:54;98537.97;;;20.28
76009;BMP280;64700;52.130;21.270;2024-02-23T02:14:20;98531.59;;;20.26
76009;BMP280;64700;52.130;21.270;2024-02-23T02:16:45;98535.78;;;20.27
76009;BMP280;64700;52.130;21.270;2024-02-23T02:19:12;98529.63;;;20.26
76009;BMP280;64700;52.130;21.270;2024-02-23T02:21:38;98526.19;;;20.26
76009;BMP280;64700;52.130;21.270;2024-02-23T02:24:04;98531.59;;;20.26
76009;BMP280;64700;52.130;21.270;2024-02-23T02:26:29;98530.88;;;20.25
76009;BMP280;64700;52.130;21.270;2024-02-23T02:28:54;98527.41;;;20.25
76009;BMP280;64700;52.130;21.270;2024-02-23T02:31:20;98524.69;;;20.25
76009;BMP280;64700;52.130;21.270;2024-02-23T02:33:45;98528.66;;;20.24
76009;BMP280;64700;52.130;21.270;2024-02-23T02:36:10;98526.69;;;20.24
76009;BMP280;64700;52.130;21.270;2024-02-23T02:38:36;98523.97;;;20.24
76009;BMP280;64700;52.130;21.270;2024-02-23T02:41:01;98511.88;;;20.25
76009;BMP280;64700;52.130;21.270;2024-02-23T02:43:27;98509.16;;;20.25
76009;BMP280;64700;52.130;21.270;2024-02-23T02:45:52;98512.59;;;20.26
76009;BMP280;64700;52.130;21.270;2024-02-23T02:48:17;98513.84;;;20.25
76009;BMP280;64700;52.130;21.270;2024-02-23T02:50:42;98513.84;;;20.25
76009;BMP280;64700;52.130;21.270;2024-02-23T02:53:08;98525.44;;;20.25
76009;BMP280;64700;52.130;21.270;2024-02-23T02:55:33;98528.66;;;20.24
76009;BMP280;64700;52.130;21.270;2024-02-23T02:57:58;98522.28;;;20.21
76009;BMP280;64700;52.130;21.270;2024-02-23T03:00:23;98527.19;;;20.23
76009;BMP280;64700;52.130;21.270;2024-02-23T03:02:49;98530.66;;;20.23
76009;BMP280;64700;52.130;21.270;2024-02-23T03:05:14;98528.44;;;20.22
76009;BMP280;64700;52.130;21.270;2024-02-23T03:07:39;98526.97;;;20.21
76009;BMP280;64700;52.130;21.270;2024-02-23T03:10:04;98532.38;;;20.21
76009;BMP280;64700;52.130;21.270;2024-02-23T03:12:30;98525.72;;;20.22
76009;BMP280;64700;52.130;21.270;2024-02-23T03:14:55;98532.38;;;20.21
76009;BMP280;64700;52.130;21.270;2024-02-23T03:17:21;98533.63;;;20.20
76009;BMP280;64700;52.130;21.270;2024-02-23T03:19:46;98525.50;;;20.20
76009;BMP280;64700;52.130;21.270;2024-02-23T03:22:11;98527.47;;;20.19
76009;BMP280;64700;52.130;21.270;2024-02-23T03:24:36;98523.50;;;20.20
76009;BMP280;64700;52.130;21.270;2024-02-23T03:27:02;98534.91;;;20.19
76009;BMP280;64700;52.130;21.270;2024-02-23T03:29:27;98537.59;;;20.19
76009;BMP280;64700;52.130;21.270;2024-02-23T03:31:56;98543.03;;;20.19
76009;BMP280;64700;52.130;21.270;2024-02-23T03:34:21;98543.50;;;20.17
76009;BMP280;64700;52.130;21.270;2024-02-23T03:36:47;98549.66;;;20.18
76009;BMP280;64700;52.130;21.270;2024-02-23T03:39:13;98556.31;;;20.17
76009;BMP280;64700;52.130;21.270;2024-02-23T03:41:38;98557.81;;;20.18
76009;BMP280;64700;52.130;21.270;2024-02-23T03:44:03;98562.03;;;20.19
76009;BMP280;64700;52.130;21.270;2024-02-23T03:46:29;98557.06;;;20.17
76009;BMP280;64700;52.130;21.270;2024-02-23T03:48:54;98557.56;;;20.16
76009;BMP280;64700;52.130;21.270;2024-02-23T03:51:19;98559.78;;;20.17
76009;BMP280;64700;52.130;21.270;2024-02-23T03:53:45;98554.09;;;20.15
76009;BMP280;64700;52.130;21.270;2024-02-23T03:56:10;98566.44;;;20.16
76009;BMP280;64700;52.130;21.270;2024-02-23T03:58:35;98563.00;;;20.16
76009;BMP280;64700;52.130;21.270;2024-02-23T04:01:00;98565.50;;;20.14
76009;BMP280;64700;52.130;21.270;2024-02-23T04:03:25;98567.69;;;20.15
76009;BMP280;64700;52.130;21.270;2024-02-23T04:05:50;98562.25;;;20.15
76009;BMP280;64700;52.130;21.270;2024-02-23T04:08:16;98574.38;;;20.14
76009;BMP280;64700;52.130;21.270;2024-02-23T04:10:41;98570.38;;;20.15
76009;BMP280;64700;52.130;21.270;2024-02-23T04:13:06;98579.78;;;20.14
76009;BMP280;64700;52.130;21.270;2024-02-23T04:15:33;98577.28;;;20.16
76009;BMP280;64700;52.130;21.270;2024-02-23T04:17:58;98577.28;;;20.16
76009;BMP280;64700;52.130;21.270;2024-02-23T04:20:23;98578.31;;;20.13
76009;BMP280;64700;52.130;21.270;2024-02-23T04:22:49;98578.06;;;20.11
76009;BMP280;64700;52.130;21.270;2024-02-23T04:25:14;98576.34;;;20.14
76009;BMP280;64700;52.130;21.270;2024-02-23T04:27:39;98583.00;;;20.13
76009;BMP280;64700;52.130;21.270;2024-02-23T04:30:04;98578.06;;;20.11
76009;BMP280;64700;52.130;21.270;2024-02-23T04:32:30;98584.25;;;20.12
76009;BMP280;64700;52.130;21.270;2024-02-23T04:34:55;98579.56;;;20.12
76009;BMP280;64700;52.130;21.270;2024-02-23T04:37:21;98595.34;;;20.14
76009;BMP280;64700;52.130;21.270;2024-02-23T04:39:46;98593.84;;;20.13
76009;BMP280;64700;52.130;21.270;2024-02-23T04:42:11;98590.41;;;20.12
76009;BMP280;64700;52.130;21.270;2024-02-23T04:44:36;98596.31;;;20.11
76009;BMP280;64700;52.130;21.270;2024-02-23T04:47:01;98593.84;;;20.13
76009;BMP280;64700;52.130;21.270;2024-02-23T04:49:27;98597.59;;;20.10
76009;BMP280;64700;52.130;21.270;2024-02-23T04:51:53;98595.84;;;20.12
76009;BMP280;64700;52.130;21.270;2024-02-23T04:54:18;98589.66;;;20.12
76009;BMP280;64700;52.130;21.270;2024-02-23T04:56:43;98600.75;;;20.14
76009;BMP280;64700;52.130;21.270;2024-02-23T04:59:08;98600.75;;;20.14
76009;BMP280;64700;52.130;21.270;2024-02-23T05:01:36;98597.31;;;20.13
76009;BMP280;64700;52.130;21.270;2024-02-23T05:04:02;98608.91;;;20.14
76009;BMP280;64700;52.130;21.270;2024-02-23T05:06:28;98612.56;;;20.16
76009;BMP280;64700;52.130;21.270;2024-02-23T05:08:53;98612.56;;;20.16
76009;BMP280;64700;52.130;21.270;2024-02-23T05:11:18;98616.00;;;20.17
76009;BMP280;64700;52.130;21.270;2024-02-23T05:13:43;98625.13;;;20.19
76009;BMP280;64700;52.130;21.270;2024-02-23T05:16:08;98624.44;;;20.19
76009;BMP280;64700;52.130;21.270;2024-02-23T05:18:34;98623.91;;;20.20
76009;BMP280;64700;52.130;21.270;2024-02-23T05:20:59;98625.63;;;20.23
76009;BMP280;64700;52.130;21.270;2024-02-23T05:23:25;98629.50;;;20.28
76009;BMP280;64700;52.130;21.270;2024-02-23T05:25:50;98634.44;;;20.29
76009;BMP280;64700;52.130;21.270;2024-02-23T05:28:15;98639.38;;;20.31
76009;BMP280;64700;52.130;21.270;2024-02-23T05:30:40;98641.56;;;20.32
76009;BMP280;64700;52.130;21.270;2024-02-23T05:33:05;98645.28;;;20.35
76009;BMP280;64700;52.130;21.270;2024-02-23T05:35:31;98651.66;;;20.37
76009;BMP280;64700;52.130;21.270;2024-02-23T05:37:56;98651.16;;;20.39
76009;BMP280;64700;52.130;21.270;2024-02-23T05:40:21;98656.59;;;20.39
76009;BMP280;64700;52.130;21.270;2024-02-23T05:42:46;98646.47;;;20.39
76009;BMP280;64700;52.130;21.270;2024-02-23T05:45:11;98667.16;;;20.42
76009;BMP280;64700;52.130;21.270;2024-02-23T05:47:40;98656.53;;;20.44
76009;BMP280;64700;52.130;21.270;2024-02-23T05:50:05;98664.41;;;20.48
76009;BMP280;64700;52.130;21.270;2024-02-23T05:52:32;98670.09;;;20.50
76009;BMP280;64700;52.130;21.270;2024-02-23T05:54:57;98674.78;;;20.49
76009;BMP280;64700;52.130;21.270;2024-02-23T05:57:24;98675.75;;;20.52
76009;BMP280;64700;52.130;21.270;2024-02-23T05:59:50;98671.78;;;20.53
76009;BMP280;64700;52.130;21.270;2024-02-23T06:02:16;98667.09;;;20.54
76009;BMP280;64700;52.130;21.270;2024-02-23T06:04:41;98681.84;;;20.58
76009;BMP280;64700;52.130;21.270;2024-02-23T06:07:06;98676.41;;;20.58
76009;BMP280;64700;52.130;21.270;2024-02-23T06:09:31;98683.81;;;20.58
76009;BMP280;64700;52.130;21.270;2024-02-23T06:11:56;98689.25;;;20.63
76009;BMP280;64700;52.130;21.270;2024-02-23T06:14:22;98691.66;;;20.67
76009;BMP280;64700;52.130;21.270;2024-02-23T06:16:48;98698.56;;;20.68
76009;BMP280;64700;52.130;21.270;2024-02-23T06:19:13;98707.22;;;20.66
76009;BMP280;64700;52.130;21.270;2024-02-23T06:21:39;98698.56;;;20.68
76009;BMP280;64700;52.130;21.270;2024-02-23T06:24:04;98705.94;;;20.73
76009;BMP280;64700;52.130;21.270;2024-02-23T06:26:29;98701.75;;;20.72
76009;BMP280;64700;52.130;21.270;2024-02-23T06:28:54;98708.41;;;20.71
76009;BMP280;64700;52.130;21.270;2024-02-23T06:31:20;98703.50;;;20.69
76009;BMP280;64700;52.130;21.270;2024-02-23T06:33:45;98704.75;;;20.68
76009;BMP280;64700;52.130;21.270;2024-02-23T06:36:13;98716.13;;;20.67
76009;BMP280;64700;52.130;21.270;2024-02-23T06:38:39;98729.69;;;20.67
76009;BMP280;64700;52.130;21.270;2024-02-23T06:41:04;98720.31;;;20.62
76009;BMP280;64700;52.130;21.270;2024-02-23T06:43:29;98722.81;;;20.60
76009;BMP280;64700;52.130;21.270;2024-02-23T06:45:54;98734.41;;;20.61
76009;BMP280;64700;52.130;21.270;2024-02-23T06:48:20;98736.41;;;20.60
76009;BMP280;64700;52.130;21.270;2024-02-23T06:50:45;98738.66;;;20.56
76009;BMP280;64700;52.130;21.270;2024-02-23T06:53:10;98735.19;;;20.56
76009;BMP280;64700;52.130;21.270;2024-02-23T06:55:35;98732.97;;;20.54
76009;BMP280;64700;52.130;21.270;2024-02-23T06:58:01;98730.25;;;20.54
76009;BMP280;64700;52.130;21.270;2024-02-23T07:00:26;98738.94;;;20.53
76009;BMP280;64700;52.130;21.270;2024-02-23T07:02:51;98746.56;;;20.54
76009;BMP280;64700;52.130;21.270;2024-02-23T07:05:16;98748.31;;;20.52
76009;BMP280;64700;52.130;21.270;2024-02-23T07:07:42;98772.75;;;20.52
76009;BMP280;64700;52.130;21.270;2024-02-23T07:10:07;98756.94;;;20.50
76009;BMP280;64700;52.130;21.270;2024-02-23T07:12:32;98737.69;;;20.48
76009;BMP280;64700;52.130;21.270;2024-02-23T07:14:58;98752.75;;;20.49
76009;BMP280;64700;52.130;21.270;2024-02-23T07:17:23;98769.03;;;20.49
76009;BMP280;64700;52.130;21.270;2024-02-23T07:19:48;98756.69;;;20.48
76009;BMP280;64700;52.130;21.270;2024-02-23T07:22:15;98762.91;;;20.48
76009;BMP280;64700;52.130;21.270;2024-02-23T07:24:42;98772.25;;;20.47
76009;BMP280;64700;52.130;21.270;2024-02-23T07:27:08;98783.13;;;20.47
76009;BMP280;64700;52.130;21.270;2024-02-23T07:29:33;98766.09;;;20.47
76009;BMP280;64700;52.130;21.270;2024-02-23T07:31:58;98776.19;;;20.46
76009;BMP280;64700;52.130;21.270;2024-02-23T07:34:23;98787.81;;;20.47
76009;BMP280;64700;52.130;21.270;2024-02-23T07:36:52;98794.72;;;20.48
76009;BMP280;64700;52.130;21.270;2024-02-23T07:39:17;98789.28;;;20.48
76009;BMP280;64700;52.130;21.270;2024-02-23T07:41:42;98787.81;;;20.47
76009;BMP280;64700;52.130;21.270;2024-02-23T07:44:07;98791.00;;;20.45
76009;BMP280;64700;52.130;21.270;2024-02-23T07:46:32;98797.19;;;20.46
76009;BMP280;64700;52.130;21.270;2024-02-23T07:48:57;98810.75;;;20.46
76009;BMP280;64700;52.130;21.270;2024-02-23T07:51:23;98799.69;;;20.44
76009;BMP280;64700;52.130;21.270;2024-02-23T07:53:48;98799.91;;;20.46
76009;BMP280;64700;52.130;21.270;2024-02-23T07:56:13;98803.09;;;20.44
76009;BMP280;64700;52.130;21.270;2024-02-23T07:58:38;98819.38;;;20.44
76009;BMP280;64700;52.130;21.270;2024-02-23T08:01:04;98812.00;;;20.45
76009;BMP280;64700;52.130;21.270;2024-02-23T08:03:29;98820.66;;;20.43
76009;BMP280;64700;52.130;21.270;2024-02-23T08:05:54;98834.22;;;20.43
76009;BMP280;64700;52.130;21.270;2024-02-23T08:08:19;98814.69;;;20.45
76009;BMP280;64700;52.130;21.270;2024-02-23T08:10:47;98825.34;;;20.43
76009;BMP280;64700;52.130;21.270;2024-02-23T08:13:12;98839.66;;;20.43
76009;BMP280;64700;52.130;21.270;2024-02-23T08:15:38;98836.94;;;20.43
76009;BMP280;64700;52.130;21.270;2024-02-23T08:18:03;98825.34;;;20.43
76009;BMP280;64700;52.130;21.270;2024-02-23T08:20:28;98837.44;;;20.42
76009;BMP280;64700;52.130;21.270;2024-02-23T08:22:54;98845.56;;;20.42
76009;BMP280;64700;52.130;21.270;2024-02-23T08:25:19;98846.81;;;20.41
76009;BMP280;64700;52.130;21.270;2024-02-23T08:27:44;98840.16;;;20.42
76009;BMP280;64700;52.130;21.270;2024-02-23T08:30:09;98848.78;;;20.40
76009;BMP280;64700;52.130;21.270;2024-02-23T08:32:36;98846.06;;;20.40
76009;BMP280;64700;52.130;21.270;2024-02-23T08:35:01;98856.94;;;20.40
76009;BMP280;64700;52.130;21.270;2024-02-23T08:37:27;98871.25;;;20.41
76009;BMP280;64700;52.130;21.270;2024-02-23T08:39:52;98876.44;;;20.39
76009;BMP280;64700;52.130;21.270;2024-02-23T08:42:18;98861.63;;;20.40
76009;BMP280;64700;52.130;21.270;2024-02-23T08:44:43;98866.34;;;20.39
76009;BMP280;64700;52.130;21.270;2024-02-23T08:47:08;98875.22;;;20.40
76009;BMP280;64700;52.130;21.270;2024-02-23T08:49:33;98879.16;;;20.39
76009;BMP280;64700;52.130;21.270;2024-02-23T08:51:58;98879.16;;;20.39
76009;BMP280;64700;52.130;21.270;2024-02-23T08:54:24;98881.34;;;20.40
76009;BMP280;64700;52.130;21.270;2024-02-23T08:56:49;98885.34;;;20.39
76009;BMP280;64700;52.130;21.270;2024-02-23T08:59:14;98894.72;;;20.38
76009;BMP280;64700;52.130;21.270;2024-02-23T09:01:39;98885.81;;;20.38
76009;BMP280;64700;52.130;21.270;2024-02-23T09:04:04;98898.16;;;20.39
76009;BMP280;64700;52.130;21.270;2024-02-23T09:06:29;98902.84;;;20.38
76009;BMP280;64700;52.130;21.270;2024-02-23T09:08:55;98904.09;;;20.37
76009;BMP280;64700;52.130;21.270;2024-02-23T09:11:20;98894.22;;;20.40
76009;BMP280;64700;52.130;21.270;2024-02-23T09:13:45;98902.34;;;20.40
76009;BMP280;64700;52.130;21.270;2024-02-23T09:16:10;98898.38;;;20.41
76009;BMP280;64700;52.130;21.270;2024-02-23T09:18:36;98907.28;;;20.41
76009;BMP280;64700;52.130;21.270;2024-02-23T09:21:01;98904.56;;;20.41
76009;BMP280;64700;52.130;21.270;2024-02-23T09:23:26;98905.78;;;20.40
76009;BMP280;64700;52.130;21.270;2024-02-23T09:25:52;98907.03;;;20.39
76009;BMP280;64700;52.130;21.270;2024-02-23T09:28:17;98912.69;;;20.41
76009;BMP280;64700;52.130;21.270;2024-02-23T09:30:42;98917.38;;;20.41
76009;BMP280;64700;52.130;21.270;2024-02-23T09:33:07;98920.09;;;20.41
76009;BMP280;64700;52.130;21.270;2024-02-23T09:35:33;98913.69;;;20.44
76009;BMP280;64700;52.130;21.270;2024-02-23T09:37:58;98911.69;;;20.44
76009;BMP280;64700;52.130;21.270;2024-02-23T09:40:23;98911.19;;;20.46
76009;BMP280;64700;52.130;21.270;2024-02-23T09:42:50;98926.25;;;20.47
76009;BMP280;64700;52.130;21.270;2024-02-23T09:45:20;98921.31;;;20.45
76009;BMP280;64700;52.130;21.270;2024-02-23T09:47:46;98921.56;;;20.47
76009;BMP280;64700;52.130;21.270;2024-02-23T09:50:12;98928.97;;;20.47
76009;BMP280;64700;52.130;21.270;2024-02-23T09:52:38;98918.09;;;20.47
76009;BMP280;64700;52.130;21.270;2024-02-23T09:55:03;98933.94;;;20.48
76009;BMP280;64700;52.130;21.270;2024-02-23T09:57:28;98938.59;;;20.48
76009;BMP280;64700;52.130;21.270;2024-02-23T09:59:54;98931.94;;;20.49
76009;BMP280;64700;52.130;21.270;2024-02-23T10:02:19;98937.84;;;20.47
76009;BMP280;64700;52.130;21.270;2024-02-23T10:04:45;98942.06;;;20.48
76009;BMP280;64700;52.130;21.270;2024-02-23T10:07:16;98942.78;;;20.49
76009;BMP280;64700;52.130;21.270;2024-02-23T10:09:42;98942.78;;;20.49
76009;BMP280;64700;52.130;21.270;2024-02-23T10:12:07;98937.38;;;20.49
76009;BMP280;64700;52.130;21.270;2024-02-23T10:14:32;98944.28;;;20.50
76009;BMP280;64700;52.130;21.270;2024-02-23T10:16:58;98946.50;;;20.52
76009;BMP280;64700;52.130;21.270;2024-02-23T10:19:23;98956.63;;;20.51
76009;BMP280;64700;52.130;21.270;2024-02-23T10:21:53;98956.63;;;20.51
76009;BMP280;64700;52.130;21.270;2024-02-23T10:24:18;98960.28;;;20.54
76009;BMP280;64700;52.130;21.270;2024-02-23T10:26:44;98954.88;;;20.54
76009;BMP280;64700;52.130;21.270;2024-02-23T10:29:11;98958.31;;;20.54
76009;BMP280;64700;52.130;21.270;2024-02-23T10:31:36;98968.69;;;20.56
76009;BMP280;64700;52.130;21.270;2024-02-23T10:34:04;98969.44;;;20.56
76009;BMP280;64700;52.130;21.270;2024-02-23T10:36:34;98968.19;;;20.57
76009;BMP280;64700;52.130;21.270;2024-02-23T10:39:01;98974.59;;;20.60
76009;BMP280;64700;52.130;21.270;2024-02-23T10:41:28;98973.84;;;20.59
76009;BMP280;64700;52.130;21.270;2024-02-23T10:43:56;98968.44;;;20.59
76009;BMP280;64700;52.130;21.270;2024-02-23T10:46:24;98980.25;;;20.62
76009;BMP280;64700;52.130;21.270;2024-02-23T10:48:50;98981.25;;;20.59
76009;BMP280;64700;52.130;21.270;2024-02-23T10:51:15;98987.44;;;20.59
76009;BMP280;64700;52.130;21.270;2024-02-23T10:53:41;98985.22;;;20.58
76009;BMP280;64700;52.130;21.270;2024-02-23T10:56:06;98987.44;;;20.59
76009;BMP280;64700;52.130;21.270;2024-02-23T10:58:32;98991.63;;;20.60
76009;BMP280;64700;52.130;21.270;2024-02-23T11:01:01;98999.03;;;20.60
76009;BMP280;64700;52.130;21.270;2024-02-23T11:03:28;99001.00;;;20.59
76009;BMP280;64700;52.130;21.270;2024-02-23T11:05:54;99001.25;;;20.61
76009;BMP280;64700;52.130;21.270;2024-02-23T11:08:19;99008.88;;;20.63
76009;BMP280;64700;52.130;21.270;2024-02-23T11:10:51;98997.81;;;20.61
76009;BMP280;64700;52.130;21.270;2024-02-23T11:13:29;99004.22;;;20.63
76009;BMP280;64700;52.130;21.270;2024-02-23T11:16:00;98999.03;;;20.65
76009;BMP280;64700;52.130;21.270;2024-02-23T11:18:29;99008.16;;;20.68
76009;BMP280;64700;52.130;21.270;2024-02-23T11:20:54;99010.88;;;20.68
76009;BMP280;64700;52.130;21.270;2024-02-23T11:23:21;99023.44;;;20.71
76009;BMP280;64700;52.130;21.270;2024-02-23T11:25:59;99017.28;;;20.70
76009;BMP280;64700;52.130;21.270;2024-02-23T11:28:24;99024.94;;;20.72
76009;BMP280;64700;52.130;21.270;2024-02-23T11:30:50;99028.38;;;20.72
76009;BMP280;64700;52.130;21.270;2024-02-23T11:33:15;99023.44;;;20.71
76009;BMP280;64700;52.130;21.270;2024-02-23T11:35:51;99029.63;;;20.71
76009;BMP280;64700;52.130;21.270;2024-02-23T11:38:17;99035.78;;;20.72
76009;BMP280;64700;52.130;21.270;2024-02-23T11:40:42;99038.50;;;20.72
76009;BMP280;64700;52.130;21.270;2024-02-23T11:43:08;99038.03;;;20.73
76009;BMP280;64700;52.130;21.270;2024-02-23T11:45:34;99043.19;;;20.71
76009;BMP280;64700;52.130;21.270;2024-02-23T11:47:59;99046.66;;;20.72
76009;BMP280;64700;52.130;21.270;2024-02-23T11:50:24;99053.56;;;20.73
76009;BMP280;64700;52.130;21.270;2024-02-23T11:52:49;99047.41;;;20.72
76009;BMP280;64700;52.130;21.270;2024-02-23T11:55:19;99053.56;;;20.73
76009;BMP280;64700;52.130;21.270;2024-02-23T11:57:47;99060.47;;;20.74
76009;BMP280;64700;52.130;21.270;2024-02-23T12:00:12;99060.25;;;20.66
76009;BMP280;64700;52.130;21.270;2024-02-23T12:02:37;99072.06;;;20.74
76009;BMP280;64700;52.130;21.270;2024-02-23T12:05:03;99072.81;;;20.75
76009;BMP280;64700;52.130;21.270;2024-02-23T12:07:31;99076.28;;;20.75
76009;BMP280;64700;52.130;21.270;2024-02-23T12:09:56;99074.78;;;20.74
76009;BMP280;64700;52.130;21.270;2024-02-23T12:12:22;99080.00;;;20.72
76009;BMP280;64700;52.130;21.270;2024-02-23T12:14:47;99074.56;;;20.72
76009;BMP280;64700;52.130;21.270;2024-02-23T12:17:13;99083.19;;;20.71
76009;BMP280;64700;52.130;21.270;2024-02-23T12:19:41;99080.47;;;20.71
76009;BMP280;64700;52.130;21.270;2024-02-23T12:22:06;99078.50;;;20.71
76009;BMP280;64700;52.130;21.270;2024-02-23T12:24:31;99073.81;;;20.72
76009;BMP280;64700;52.130;21.270;2024-02-23T12:26:57;99078.03;;;20.73
76009;BMP280;64700;52.130;21.270;2024-02-23T12:29:22;99075.06;;;20.71
76009;BMP280;64700;52.130;21.270;2024-02-23T12:31:48;99083.47;;;20.67
76009;BMP280;64700;52.130;21.270;2024-02-23T12:34:13;99086.91;;;20.68
76009;BMP280;64700;52.130;21.270;2024-02-23T12:36:39;99086.66;;;20.71
76009;BMP280;64700;52.130;21.270;2024-02-23T12:39:04;99098.25;;;20.72
76009;BMP280;64700;52.130;21.270;2024-02-23T12:41:29;99101.72;;;20.72
76009;BMP280;64700;52.130;21.270;2024-02-23T12:43:54;99092.34;;;20.73
76009;BMP280;64700;52.130;21.270;2024-02-23T12:46:20;99096.28;;;20.72
76009;BMP280;64700;52.130;21.270;2024-02-23T12:48:45;99092.09;;;20.71
76009;BMP280;64700;52.130;21.270;2024-02-23T12:51:10;99087.16;;;20.70
76009;BMP280;64700;52.130;21.270;2024-02-23T12:53:36;99096.56;;;20.69
76009;BMP280;64700;52.130;21.270;2024-02-23T12:56:03;99091.88;;;20.69
76009;BMP280;64700;52.130;21.270;2024-02-23T12:58:28;99094.56;;;20.69
76009;BMP280;64700;52.130;21.270;2024-02-23T13:00:53;99099.28;;;20.69
76009;BMP280;64700;52.130;21.270;2024-02-23T13:03:19;99095.06;;;20.68
76009;BMP280;64700;52.130;21.270;2024-02-23T13:05:44;99092.84;;;20.66
76009;BMP280;64700;52.130;21.270;2024-02-23T13:08:09;99098.78;;;20.65
76009;BMP280;64700;52.130;21.270;2024-02-23T13:10:34;99113.81;;;20.66
76009;BMP280;64700;52.130;21.270;2024-02-23T13:13:00;99108.91;;;20.64
76009;BMP280;64700;52.130;21.270;2024-02-23T13:15:25;99114.78;;;20.63
76009;BMP280;64700;52.130;21.270;2024-02-23T13:17:50;99118.03;;;20.61
76009;BMP280;64700;52.130;21.270;2024-02-23T13:20:16;99123.72;;;20.63
76009;BMP280;64700;52.130;21.270;2024-02-23T13:22:41;99126.44;;;20.63
76009;BMP280;64700;52.130;21.270;2024-02-23T13:25:06;99122.47;;;20.64
76009;BMP280;64700;52.130;21.270;2024-02-23T13:27:31;99123.72;;;20.63
76009;BMP280;64700;52.130;21.270;2024-02-23T13:29:56;99122.94;;;20.63
76009;BMP280;64700;52.130;21.270;2024-02-23T13:32:22;99123.72;;;20.63
76009;BMP280;64700;52.130;21.270;2024-02-23T13:34:47;99129.88;;;20.64
76009;BMP280;64700;52.130;21.270;2024-02-23T13:37:12;99138.25;;;20.66
76009;BMP280;64700;52.130;21.270;2024-02-23T13:39:37;99143.69;;;20.66
76009;BMP280;64700;52.130;21.270;2024-02-23T13:42:03;99149.66;;;20.64
76009;BMP280;64700;52.130;21.270;2024-02-23T13:44:30;99149.66;;;20.64
76009;BMP280;64700;52.130;21.270;2024-02-23T13:46:56;99149.34;;;20.62